Time;durP1;ratioP1;P1;durP2;ratioP2;P2;SDS_P1;SDS_P2;PMS_P1;PMS_P2;Temp;Humidity;BMP_temperature;BMP_pressure;BME280_temperature;BME280_humidity;BME280_pressure;Samples;Min_cycle;Max_cycle;Signal;HPM_P1;HPM_P2
2021/11/29 00:00:19;;;;;;;2.35;1.77;;;6.60;99.90;;;;;;5006007;28;20058;-76
2021/11/29 00:02:51;;;;;;;3.10;1.95;;;6.60;99.90;;;;;;5010155;28;20027;-74
2021/11/29 00:05:19;;;;;;;4.22;1.52;;;6.60;99.90;;;;;;5019675;28;20030;-74
2021/11/29 00:07:45;;;;;;;5.65;1.52;;;6.60;99.90;;;;;;5021323;28;20038;-74
2021/11/29 00:10:11;;;;;;;7.10;2.35;;;6.50;99.90;;;;;;5007796;28;20030;-74
2021/11/29 00:12:37;;;;;;;3.42;1.70;;;6.60;99.90;;;;;;5009084;28;20040;-74
2021/11/29 00:15:05;;;;;;;7.00;3.13;;;6.70;99.90;;;;;;5013222;28;20353;-75
2021/11/29 00:17:31;;;;;;;3.05;1.55;;;6.70;99.90;;;;;;5012695;28;20030;-75
2021/11/29 00:19:56;;;;;;;3.70;1.40;;;6.70;99.90;;;;;;5009809;28;20105;-75
2021/11/29 00:22:22;;;;;;;2.55;1.65;;;6.70;99.90;;;;;;5012962;28;20033;-74
2021/11/29 00:24:48;;;;;;;2.22;1.42;;;6.60;99.90;;;;;;5010821;28;20048;-73
2021/11/29 00:27:13;;;;;;;4.75;1.60;;;6.60;99.90;;;;;;5013717;28;20372;-75
2021/11/29 00:29:42;;;;;;;7.57;2.22;;;6.50;99.90;;;;;;5011506;28;20092;-76
2021/11/29 00:32:08;;;;;;;6.70;2.45;;;6.40;99.90;;;;;;5012470;28;20305;-75
2021/11/29 00:34:34;;;;;;;4.95;2.53;;;6.40;99.90;;;;;;5013106;28;20029;-75
2021/11/29 00:36:59;;;;;;;4.82;2.80;;;6.30;99.90;;;;;;5010796;28;20060;-75
2021/11/29 00:39:25;;;;;;;2.17;1.92;;;6.40;99.90;;;;;;5009431;28;20126;-75
2021/11/29 00:41:51;;;;;;;2.92;1.88;;;6.20;99.90;;;;;;5011343;28;20033;-75
2021/11/29 00:44:17;;;;;;;2.97;1.77;;;6.20;99.90;;;;;;5002249;28;20026;-75
2021/11/29 00:46:43;;;;;;;3.58;1.45;;;6.10;99.90;;;;;;5007677;28;20387;-76
2021/11/29 00:49:08;;;;;;;2.42;1.80;;;6.10;99.90;;;;;;5014931;28;20443;-76
2021/11/29 00:51:34;;;;;;;4.97;1.45;;;6.00;99.90;;;;;;5014170;28;20164;-76
2021/11/29 00:54:00;;;;;;;2.50;1.67;;;6.00;99.90;;;;;;5017043;28;20022;-75
2021/11/29 00:56:27;;;;;;;5.97;1.55;;;6.00;99.90;;;;;;5014386;28;20037;-76
2021/11/29 00:58:53;;;;;;;2.83;1.92;;;6.00;99.90;;;;;;5014693;28;20040;-76
2021/11/29 01:01:19;;;;;;;1.70;1.50;;;5.90;99.90;;;;;;5013342;28;20030;-76
2021/11/29 01:03:45;;;;;;;2.30;1.90;;;5.90;99.90;;;;;;5014031;28;20491;-75
2021/11/29 01:06:11;;;;;;;2.33;1.35;;;5.80;99.90;;;;;;5010752;28;20547;-75
2021/11/29 01:08:37;;;;;;;2.38;1.55;;;5.80;99.90;;;;;;5011006;28;20438;-75
2021/11/29 01:11:05;;;;;;;2.47;1.55;;;5.80;99.90;;;;;;5011377;28;20034;-76
2021/11/29 01:13:31;;;;;;;3.03;1.88;;;5.90;99.90;;;;;;5011590;28;20045;-74
2021/11/29 01:15:57;;;;;;;4.45;1.52;;;6.00;99.90;;;;;;5010131;28;20014;-74
2021/11/29 01:18:22;;;;;;;2.80;1.98;;;6.00;99.90;;;;;;5011478;28;20032;-74
2021/11/29 01:20:48;;;;;;;2.97;2.10;;;6.00;99.90;;;;;;5013603;28;20030;-74
2021/11/29 01:23:16;;;;;;;1.92;1.80;;;5.90;99.90;;;;;;5014253;28;20022;-75
2021/11/29 01:25:42;;;;;;;5.65;1.90;;;5.80;99.90;;;;;;5010375;28;20216;-75
2021/11/29 01:28:09;;;;;;;3.53;1.52;;;5.80;99.90;;;;;;5008191;28;20029;-75
2021/11/29 01:30:35;;;;;;;1.88;1.50;;;5.80;99.90;;;;;;5012159;28;20049;-75
2021/11/29 01:33:02;;;;;;;2.20;1.73;;;5.80;99.90;;;;;;5009879;28;20028;-75
2021/11/29 01:35:28;;;;;;;3.22;1.52;;;5.80;99.90;;;;;;5007392;28;20484;-75
2021/11/29 01:37:54;;;;;;;2.47;2.08;;;5.90;99.90;;;;;;5004177;28;20042;-75
2021/11/29 01:40:20;;;;;;;2.15;1.95;;;5.90;99.90;;;;;;5009014;28;20034;-75
2021/11/29 01:43:04;;;;;;;2.50;2.28;;;5.90;99.90;;;;;;5004555;28;20026;-76
2021/11/29 01:45:34;;;;;;;1.85;1.70;;;5.90;99.90;;;;;;5006103;28;20490;-76
2021/11/29 01:48:00;;;;;;;2.35;1.95;;;5.90;99.90;;;;;;5007368;28;20846;-76
2021/11/29 01:50:26;;;;;;;2.75;1.60;;;5.90;99.90;;;;;;5004738;28;20062;-75
2021/11/29 01:52:52;;;;;;;3.53;2.05;;;5.90;99.90;;;;;;5010415;28;20043;-76
2021/11/29 01:55:18;;;;;;;2.58;1.60;;;5.90;99.90;;;;;;5009535;28;20258;-75
2021/11/29 01:57:45;;;;;;;2.05;1.80;;;5.90;99.90;;;;;;5008598;28;20022;-75
2021/11/29 02:00:15;;;;;;;1.95;1.23;;;6.00;99.90;;;;;;5002836;28;20041;-75
2021/11/29 02:02:41;;;;;;;2.75;2.05;;;6.00;99.90;;;;;;5004027;28;20030;-76
2021/11/29 02:05:07;;;;;;;2.15;1.80;;;6.10;99.90;;;;;;5009330;28;20073;-76
2021/11/29 02:07:33;;;;;;;1.70;1.60;;;6.20;99.90;;;;;;5003028;28;20030;-76
2021/11/29 02:09:59;;;;;;;2.25;1.95;;;6.20;99.90;;;;;;5009610;28;20350;-75
2021/11/29 02:12:24;;;;;;;2.75;1.75;;;6.20;99.90;;;;;;5008579;28;20396;-75
2021/11/29 02:14:50;;;;;;;2.53;2.17;;;6.10;99.90;;;;;;5002005;28;20041;-76
2021/11/29 02:17:17;;;;;;;2.08;1.88;;;6.00;99.90;;;;;;5006921;28;20036;-75
2021/11/29 02:19:45;;;;;;;2.38;2.00;;;5.90;99.90;;;;;;5018258;28;20045;-74
2021/11/29 02:22:11;;;;;;;2.10;1.63;;;5.90;99.90;;;;;;5021855;28;20026;-74
2021/11/29 02:24:37;;;;;;;2.38;2.17;;;5.90;99.90;;;;;;5014697;28;20037;-75
2021/11/29 02:27:04;;;;;;;2.28;1.83;;;5.80;99.90;;;;;;5008379;28;20037;-75
2021/11/29 02:29:30;;;;;;;2.58;2.38;;;5.90;99.90;;;;;;5005244;28;20073;-75
2021/11/29 02:31:56;;;;;;;3.17;1.83;;;5.90;99.90;;;;;;5005187;28;20058;-75
2021/11/29 02:34:25;;;;;;;4.00;1.30;;;5.80;99.90;;;;;;5006958;28;20036;-74
2021/11/29 02:36:52;;;;;;;2.67;1.48;;;5.80;99.90;;;;;;5008065;28;20025;-74
2021/11/29 02:39:19;;;;;;;3.45;1.55;;;5.60;99.90;;;;;;4997866;28;20027;-75
2021/11/29 02:41:47;;;;;;;1.52;1.40;;;5.60;99.90;;;;;;5006826;28;20121;-75
2021/11/29 02:44:14;;;;;;;5.93;2.25;;;5.60;99.90;;;;;;5003935;28;20074;-74
2021/11/29 02:46:40;;;;;;;1.65;1.40;;;5.70;99.90;;;;;;5018111;28;20037;-75
2021/11/29 02:49:08;;;;;;;4.43;1.77;;;5.80;99.90;;;;;;5005632;28;20043;-75
2021/11/29 02:51:44;;;;;;;2.85;2.58;;;6.00;99.90;;;;;;5001594;28;20036;-74
2021/11/29 02:54:12;;;;;;;1.55;1.45;;;5.90;99.90;;;;;;5006928;28;20534;-75
2021/11/29 02:56:41;;;;;;;2.42;1.42;;;5.80;99.90;;;;;;5009490;28;20084;-74
2021/11/29 02:59:13;;;;;;;2.15;1.58;;;5.70;99.90;;;;;;5008396;28;20108;-75
2021/11/29 03:01:44;;;;;;;2.05;1.73;;;5.70;99.90;;;;;;5001298;28;20105;-74
2021/11/29 03:04:10;;;;;;;2.47;2.00;;;5.60;99.90;;;;;;5008031;28;20025;-75
2021/11/29 03:06:36;;;;;;;3.38;2.47;;;5.60;99.90;;;;;;5008026;28;20135;-75
2021/11/29 03:09:02;;;;;;;1.92;1.83;;;5.60;99.90;;;;;;5003211;28;20113;-75
2021/11/29 03:11:28;;;;;;;2.75;1.40;;;5.70;99.90;;;;;;5018319;28;20057;-75
2021/11/29 03:13:55;;;;;;;1.60;1.50;;;5.80;99.90;;;;;;5008185;28;20526;-75
2021/11/29 03:16:21;;;;;;;2.13;1.63;;;5.80;99.90;;;;;;5002776;28;20022;-75
2021/11/29 03:18:47;;;;;;;2.00;1.80;;;5.80;99.90;;;;;;5005435;28;20089;-76
2021/11/29 03:21:16;;;;;;;2.85;2.05;;;5.80;99.90;;;;;;5007848;28;20044;-75
2021/11/29 03:23:44;;;;;;;1.85;1.63;;;5.70;99.90;;;;;;5003802;28;20030;-75
2021/11/29 03:26:14;;;;;;;3.45;2.10;;;5.70;99.90;;;;;;5007261;28;20480;-75
2021/11/29 03:28:42;;;;;;;1.98;1.88;;;5.70;99.90;;;;;;5004469;28;20034;-75
2021/11/29 03:31:09;;;;;;;2.45;2.25;;;5.70;99.90;;;;;;5001341;28;20021;-75
2021/11/29 03:33:35;;;;;;;2.97;2.38;;;5.70;99.90;;;;;;5008073;28;20030;-75
2021/11/29 03:36:03;;;;;;;2.47;2.25;;;5.80;99.90;;;;;;5009668;28;20021;-75
2021/11/29 03:38:28;;;;;;;6.80;2.60;;;5.80;99.90;;;;;;4999315;28;20025;-76
2021/11/29 03:40:56;;;;;;;2.65;2.45;;;5.90;99.90;;;;;;4998729;28;20095;-74
2021/11/29 03:43:22;;;;;;;2.92;2.28;;;6.00;99.90;;;;;;5010223;28;20495;-75
2021/11/29 03:45:48;;;;;;;3.03;2.38;;;6.00;99.90;;;;;;5009400;28;20029;-74
2021/11/29 03:48:13;;;;;;;1.83;1.67;;;5.90;99.90;;;;;;5004761;28;20099;-74
2021/11/29 03:50:39;;;;;;;2.05;1.67;;;5.80;99.90;;;;;;5001739;28;20046;-74
2021/11/29 03:53:05;;;;;;;1.50;1.40;;;5.80;99.90;;;;;;5005997;28;20022;-75
2021/11/29 03:55:31;;;;;;;1.55;1.30;;;5.80;99.90;;;;;;5004934;28;20026;-75
2021/11/29 03:57:56;;;;;;;2.03;1.58;;;5.70;99.90;;;;;;5005931;28;20029;-74
2021/11/29 04:00:22;;;;;;;1.40;1.30;;;5.70;99.90;;;;;;5006777;28;20037;-75
2021/11/29 04:02:48;;;;;;;2.63;1.90;;;5.70;99.90;;;;;;5008106;28;20530;-74
2021/11/29 04:05:14;;;;;;;1.58;1.48;;;5.70;99.90;;;;;;5009689;28;20133;-75
2021/11/29 04:07:41;;;;;;;2.08;1.50;;;5.80;99.90;;;;;;5007005;28;20030;-74
2021/11/29 04:10:07;;;;;;;1.27;1.00;;;5.70;99.90;;;;;;5008456;28;20048;-74
2021/11/29 04:12:33;;;;;;;2.15;1.58;;;5.70;99.90;;;;;;5007330;28;20124;-74
2021/11/29 04:14:58;;;;;;;1.60;1.50;;;5.70;99.90;;;;;;5009420;28;20110;-74
2021/11/29 04:17:26;;;;;;;1.77;1.13;;;5.80;99.90;;;;;;4985434;28;21640;-75
2021/11/29 04:19:52;;;;;;;0.80;0.80;;;5.90;99.90;;;;;;4985595;28;20042;-74
2021/11/29 04:22:18;;;;;;;0.95;0.95;;;5.90;99.90;;;;;;4984439;28;20030;-74
2021/11/29 04:24:46;;;;;;;3.10;1.05;;;5.90;99.90;;;;;;4988109;28;20093;-75
2021/11/29 04:27:12;;;;;;;0.75;0.70;;;5.80;99.90;;;;;;4988332;28;20380;-76
2021/11/29 04:29:41;;;;;;;0.45;0.40;;;5.70;99.90;;;;;;4987412;28;20113;-75
2021/11/29 04:32:07;;;;;;;0.40;0.40;;;5.70;99.90;;;;;;4987790;28;20400;-75
2021/11/29 04:34:34;;;;;;;0.70;0.60;;;5.70;99.90;;;;;;4982801;28;20033;-75
2021/11/29 04:37:02;;;;;;;0.43;0.43;;;5.60;99.90;;;;;;4999537;28;20053;-75
2021/11/29 04:39:29;;;;;;;0.73;0.73;;;5.60;99.90;;;;;;5000456;28;20034;-74
2021/11/29 04:41:55;;;;;;;0.43;0.43;;;5.70;99.90;;;;;;4995561;28;20476;-74
2021/11/29 04:44:20;;;;;;;0.43;0.43;;;5.70;99.90;;;;;;4985248;28;20030;-74
2021/11/29 04:46:46;;;;;;;0.90;0.63;;;5.80;99.90;;;;;;4989633;28;20112;-75
2021/11/29 04:49:12;;;;;;;0.57;0.40;;;5.80;99.90;;;;;;4986648;28;20042;-74
2021/11/29 04:51:37;;;;;;;0.30;0.30;;;5.90;99.90;;;;;;4987711;28;20373;-74
2021/11/29 04:54:03;;;;;;;0.35;0.35;;;6.00;99.90;;;;;;4987213;28;20026;-74
2021/11/29 04:56:29;;;;;;;0.28;0.28;;;5.90;99.90;;;;;;4982508;28;20019;-74
2021/11/29 04:58:55;;;;;;;0.50;0.28;;;5.90;99.90;;;;;;4992350;28;20033;-75
2021/11/29 05:01:22;;;;;;;0.77;0.50;;;6.00;99.90;;;;;;5003000;28;20026;-74
2021/11/29 05:03:47;;;;;;;0.32;0.20;;;6.00;99.90;;;;;;5008180;28;20432;-74
2021/11/29 05:06:13;;;;;;;0.85;0.38;;;5.90;99.90;;;;;;5005322;28;20038;-74
2021/11/29 05:08:39;;;;;;;1.45;0.75;;;6.00;99.90;;;;;;5001170;28;20019;-75
2021/11/29 05:11:05;;;;;;;0.40;0.40;;;6.00;99.90;;;;;;5005839;28;20029;-75
2021/11/29 05:13:31;;;;;;;0.10;0.10;;;6.10;99.90;;;;;;5008397;28;20038;-74
2021/11/29 05:15:57;;;;;;;0.32;0.32;;;6.10;99.90;;;;;;4994434;28;20046;-74
2021/11/29 05:18:23;;;;;;;0.38;0.38;;;6.10;99.90;;;;;;5006038;28;20037;-75
2021/11/29 05:20:49;;;;;;;0.30;0.30;;;6.20;99.90;;;;;;5001331;28;20072;-74
2021/11/29 05:23:16;;;;;;;0.28;0.28;;;6.20;99.90;;;;;;4992056;28;20038;-74
2021/11/29 05:25:43;;;;;;;0.20;0.20;;;6.30;99.90;;;;;;4992989;28;20322;-74
2021/11/29 05:28:09;;;;;;;3.20;0.30;;;6.40;99.90;;;;;;4993334;28;20022;-75
2021/11/29 05:30:35;;;;;;;0.30;0.30;;;6.40;99.90;;;;;;4992203;28;20022;-75
2021/11/29 05:33:02;;;;;;;0.35;0.35;;;6.50;99.90;;;;;;4993303;28;20019;-73
2021/11/29 05:35:28;;;;;;;2.83;0.40;;;6.50;99.90;;;;;;4992388;28;20035;-75
2021/11/29 05:37:54;;;;;;;0.20;0.20;;;6.50;99.90;;;;;;4992267;28;20848;-74
2021/11/29 05:40:20;;;;;;;0.20;0.20;;;6.50;99.90;;;;;;4985304;28;20110;-74
2021/11/29 05:42:46;;;;;;;0.63;0.47;;;6.50;99.90;;;;;;4989606;28;20045;-75
2021/11/29 05:45:13;;;;;;;0.20;0.20;;;6.50;99.90;;;;;;4988653;28;20030;-74
2021/11/29 05:47:39;;;;;;;0.50;0.50;;;6.60;99.90;;;;;;4988569;28;20357;-73
2021/11/29 05:50:07;;;;;;;0.40;0.40;;;6.60;99.90;;;;;;4991809;28;20091;-74
2021/11/29 05:52:33;;;;;;;0.20;0.20;;;6.60;99.90;;;;;;4990095;28;20037;-74
2021/11/29 05:54:59;;;;;;;0.40;0.30;;;6.60;99.90;;;;;;4990473;28;20495;-74
2021/11/29 05:57:25;;;;;;;0.20;0.20;;;6.60;99.90;;;;;;4990744;28;20034;-74
2021/11/29 05:59:51;;;;;;;0.20;0.20;;;6.60;99.90;;;;;;4986940;28;20081;-75
2021/11/29 06:02:16;;;;;;;0.10;0.10;;;6.60;99.90;;;;;;4980720;28;20034;-75
2021/11/29 06:04:42;;;;;;;0.30;0.30;;;6.60;99.90;;;;;;4991211;28;20173;-74
2021/11/29 06:07:08;;;;;;;0.40;0.30;;;6.60;99.90;;;;;;4989831;28;20034;-76
2021/11/29 06:09:33;;;;;;;0.20;0.20;;;6.60;99.90;;;;;;4990868;28;20075;-74
2021/11/29 06:11:59;;;;;;;1.20;0.60;;;6.70;99.90;;;;;;4990734;28;20038;-74
2021/11/29 06:14:26;;;;;;;6.00;0.45;;;6.60;99.90;;;;;;4984923;28;20061;-74
2021/11/29 06:16:56;;;;;;;0.20;0.20;;;6.70;99.90;;;;;;4990725;28;20037;-75
2021/11/29 06:19:22;;;;;;;2.10;0.30;;;6.60;99.90;;;;;;4985154;28;20504;-73
2021/11/29 06:21:47;;;;;;;0.20;0.20;;;6.70;99.90;;;;;;4991859;28;20073;-74
2021/11/29 06:24:13;;;;;;;0.30;0.20;;;6.70;99.90;;;;;;4987959;28;20034;-75
2021/11/29 06:26:39;;;;;;;0.20;0.20;;;6.70;99.90;;;;;;4990615;28;20031;-75
2021/11/29 06:29:05;;;;;;;0.45;0.40;;;6.70;99.90;;;;;;4987266;28;20437;-74
2021/11/29 06:31:31;;;;;;;0.60;0.60;;;6.70;99.90;;;;;;4992068;28;20034;-75
2021/11/29 06:33:58;;;;;;;1.15;0.40;;;6.70;99.90;;;;;;4985705;28;20110;-74
2021/11/29 06:36:29;;;;;;;0.35;0.35;;;6.70;99.90;;;;;;4990273;28;20027;-75
2021/11/29 06:38:56;;;;;;;0.60;0.60;;;6.70;99.90;;;;;;4991550;28;20026;-73
2021/11/29 06:41:28;;;;;;;1.02;0.52;;;6.70;99.90;;;;;;4986481;28;20026;-75
2021/11/29 06:43:54;;;;;;;;;;;6.60;99.90;;;;;;4989628;28;20053;-73
2021/11/29 06:46:20;;;;;;;0.40;0.40;;;6.60;99.90;;;;;;4993072;28;19909;-73
2021/11/29 06:48:46;;;;;;;1.05;0.70;;;6.60;99.90;;;;;;4989035;28;20014;-73
2021/11/29 06:51:12;;;;;;;0.43;0.43;;;6.60;99.90;;;;;;4994817;28;20049;-73
2021/11/29 06:53:40;;;;;;;0.30;0.30;;;6.60;99.90;;;;;;5003452;28;20042;-73
2021/11/29 06:56:06;;;;;;;0.70;0.60;;;6.60;99.90;;;;;;4990506;28;20022;-73
2021/11/29 06:58:32;;;;;;;0.68;0.50;;;6.60;99.90;;;;;;4987454;28;20113;-72
2021/11/29 07:00:58;;;;;;;0.30;0.30;;;6.60;99.90;;;;;;4991507;28;20105;-73
2021/11/29 07:03:24;;;;;;;0.75;0.57;;;6.60;99.90;;;;;;4986962;28;20042;-73
2021/11/29 07:05:51;;;;;;;0.95;0.50;;;6.50;99.90;;;;;;4989585;28;20027;-74
2021/11/29 07:08:20;;;;;;;0.47;0.30;;;6.50;99.90;;;;;;4989564;28;20070;-72
2021/11/29 07:10:47;;;;;;;0.40;0.40;;;6.50;99.90;;;;;;4990348;28;20062;-73
2021/11/29 07:13:15;;;;;;;0.50;0.45;;;6.50;99.90;;;;;;4988365;28;20034;-74
2021/11/29 07:15:42;;;;;;;2.20;0.55;;;6.50;99.90;;;;;;4981841;28;20022;-74
2021/11/29 07:18:08;;;;;;;0.20;0.20;;;6.60;99.90;;;;;;4989268;28;20089;-74
2021/11/29 07:20:35;;;;;;;0.55;0.55;;;6.60;99.90;;;;;;4985018;28;20053;-74
2021/11/29 07:23:02;;;;;;;0.28;0.28;;;6.60;99.90;;;;;;4987890;28;20575;-73
2021/11/29 07:25:27;;;;;;;0.93;0.40;;;6.60;99.90;;;;;;4990159;28;20030;-73
2021/11/29 07:27:53;;;;;;;0.30;0.30;;;6.60;99.90;;;;;;4990072;28;20049;-73
2021/11/29 07:30:22;;;;;;;0.73;0.65;;;6.60;99.90;;;;;;4985514;28;20038;-73
2021/11/29 07:32:49;;;;;;;1.08;0.20;;;6.50;99.90;;;;;;4990484;28;20097;-74
2021/11/29 07:35:15;;;;;;;6.03;1.33;;;6.50;99.90;;;;;;4983353;28;20074;-74
2021/11/29 07:37:42;;;;;;;0.85;0.40;;;6.50;99.90;;;;;;4987971;28;20026;-73
2021/11/29 07:40:09;;;;;;;1.55;0.47;;;6.50;99.90;;;;;;4989318;28;20464;-74
2021/11/29 07:42:36;;;;;;;0.40;0.40;;;6.50;99.90;;;;;;4989300;28;20062;-73
2021/11/29 07:45:03;;;;;;;0.40;0.40;;;6.50;99.90;;;;;;4979957;28;20027;-75
2021/11/29 07:47:29;;;;;;;0.32;0.32;;;6.50;99.90;;;;;;4988543;28;20400;-74
2021/11/29 07:49:55;;;;;;;0.50;0.50;;;6.50;99.90;;;;;;4989997;28;20089;-74
2021/11/29 07:52:21;;;;;;;0.40;0.40;;;6.50;99.90;;;;;;5004529;28;20037;-74
2021/11/29 07:54:46;;;;;;;0.30;0.30;;;6.50;99.90;;;;;;4991394;28;20031;-75
2021/11/29 07:57:16;;;;;;;3.67;0.55;;;6.50;99.90;;;;;;4991215;28;20377;-75
2021/11/29 07:59:42;;;;;;;2.08;1.42;;;6.60;99.90;;;;;;4985958;28;20048;-75
2021/11/29 08:02:10;;;;;;;0.70;0.40;;;6.50;99.90;;;;;;4986747;28;21818;-74
2021/11/29 08:04:36;;;;;;;0.52;0.52;;;6.50;99.90;;;;;;4983390;28;20030;-75
2021/11/29 08:07:02;;;;;;;0.40;0.40;;;6.50;99.90;;;;;;4991220;28;20034;-75
2021/11/29 08:09:28;;;;;;;0.80;0.57;;;6.60;99.90;;;;;;4990756;28;20026;-75
2021/11/29 08:11:53;;;;;;;2.20;1.25;;;6.60;99.90;;;;;;4988400;28;20030;-76
2021/11/29 08:14:19;;;;;;;2.17;0.68;;;6.70;99.90;;;;;;4989412;28;20717;-75
2021/11/29 08:16:45;;;;;;;0.55;0.40;;;6.80;99.90;;;;;;4990829;28;20041;-75
2021/11/29 08:19:11;;;;;;;0.20;0.20;;;6.90;99.90;;;;;;4987590;28;20026;-75
2021/11/29 08:21:37;;;;;;;0.50;0.50;;;7.10;99.90;;;;;;4980295;28;20038;-74
2021/11/29 08:24:05;;;;;;;0.43;0.43;;;7.20;99.90;;;;;;4989282;28;20108;-75
2021/11/29 08:26:31;;;;;;;4.32;0.70;;;7.40;99.90;;;;;;4990396;28;20555;-75
2021/11/29 08:28:57;;;;;;;0.52;0.47;;;7.50;99.90;;;;;;4989335;28;20034;-74
2021/11/29 08:31:23;;;;;;;1.55;0.73;;;7.50;99.90;;;;;;4987954;28;20026;-75
2021/11/29 08:33:48;;;;;;;0.40;0.40;;;7.50;99.90;;;;;;4987597;28;20109;-75
2021/11/29 08:36:14;;;;;;;0.90;0.77;;;7.60;99.90;;;;;;4995149;28;20022;-74
2021/11/29 08:38:40;;;;;;;0.30;0.30;;;7.60;99.90;;;;;;4989833;28;20502;-75
2021/11/29 08:41:05;;;;;;;0.35;0.35;;;7.60;99.90;;;;;;4995016;28;20038;-75
2021/11/29 08:43:31;;;;;;;0.22;0.20;;;7.60;99.90;;;;;;4978272;28;20042;-74
2021/11/29 08:45:57;;;;;;;0.68;0.50;;;7.60;99.90;;;;;;4992583;28;20037;-74
2021/11/29 08:48:24;;;;;;;0.90;0.40;;;7.70;99.90;;;;;;4994172;28;20023;-75
2021/11/29 08:50:53;;;;;;;0.35;0.25;;;7.80;99.90;;;;;;5008259;28;20026;-75
2021/11/29 08:53:22;;;;;;;0.45;0.45;;;7.70;99.90;;;;;;5008589;28;20062;-74
2021/11/29 08:55:48;;;;;;;1.17;0.63;;;7.80;99.90;;;;;;4994613;28;20050;-74
2021/11/29 08:58:14;;;;;;;0.43;0.30;;;7.80;99.90;;;;;;4993947;28;20030;-74
2021/11/29 09:00:42;;;;;;;1.58;0.60;;;8.00;99.90;;;;;;4994121;28;20033;-75
2021/11/29 09:03:09;;;;;;;0.52;0.50;;;8.00;99.90;;;;;;4994461;28;20085;-74
2021/11/29 09:05:41;;;;;;;1.45;0.68;;;8.10;99.90;;;;;;4993477;28;20053;-75
2021/11/29 09:08:07;;;;;;;0.43;0.43;;;8.20;99.90;;;;;;4993935;28;20022;-75
2021/11/29 09:10:33;;;;;;;1.13;0.77;;;8.30;99.90;;;;;;4974798;28;20031;-75
2021/11/29 09:12:59;;;;;;;0.77;0.75;;;8.40;99.90;;;;;;5008753;28;20440;-75
2021/11/29 09:15:26;;;;;;;1.15;0.73;;;8.50;99.90;;;;;;4993969;28;20041;-75
2021/11/29 09:17:51;;;;;;;0.95;0.45;;;8.50;99.90;;;;;;4992889;28;20492;-75
2021/11/29 09:20:20;;;;;;;0.40;0.40;;;8.40;99.90;;;;;;4992329;28;20038;-74
2021/11/29 09:22:46;;;;;;;1.20;0.65;;;8.40;99.90;;;;;;4983871;28;20086;-75
2021/11/29 09:25:12;;;;;;;0.65;0.35;;;8.60;99.90;;;;;;4993656;28;20034;-75
2021/11/29 09:27:39;;;;;;;0.65;0.43;;;8.70;99.90;;;;;;4993910;28;20037;-75
2021/11/29 09:30:09;;;;;;;0.60;0.40;;;8.80;99.90;;;;;;4990644;28;20059;-74
2021/11/29 09:32:37;;;;;;;0.75;0.38;;;8.80;99.90;;;;;;4991503;28;20031;-74
2021/11/29 09:35:06;;;;;;;0.73;0.63;;;8.80;99.90;;;;;;4993785;28;20044;-74
2021/11/29 09:37:32;;;;;;;0.80;0.57;;;8.80;99.90;;;;;;4991284;28;20393;-74
2021/11/29 09:39:57;;;;;;;0.90;0.77;;;9.00;99.90;;;;;;4993431;28;20026;-75
2021/11/29 09:42:23;;;;;;;0.68;0.30;;;9.10;99.90;;;;;;4993817;28;20053;-74
2021/11/29 09:44:53;;;;;;;0.45;0.45;;;9.10;99.90;;;;;;4993992;28;20042;-75
2021/11/29 09:47:20;;;;;;;3.80;0.63;;;8.90;99.90;;;;;;4993211;28;20061;-76
2021/11/29 09:49:46;;;;;;;0.20;0.20;;;8.70;99.90;;;;;;4993899;28;20036;-75
2021/11/29 09:52:12;;;;;;;3.33;0.98;;;8.60;99.90;;;;;;4996500;28;20065;-75
2021/11/29 09:54:41;;;;;;;0.85;0.70;;;8.70;99.90;;;;;;4996339;28;20049;-75
2021/11/29 09:57:06;;;;;;;0.40;0.40;;;8.70;99.90;;;;;;4994165;28;20436;-76
2021/11/29 09:59:32;;;;;;;2.63;0.63;;;8.80;99.90;;;;;;4995847;28;20041;-74
2021/11/29 10:01:58;;;;;;;0.47;0.40;;;8.70;99.90;;;;;;4992983;28;20197;-75
2021/11/29 10:04:24;;;;;;;0.32;0.28;;;8.70;99.90;;;;;;4996593;28;20350;-73
2021/11/29 10:06:55;;;;;;;1.60;0.68;;;8.70;99.90;;;;;;4990218;28;20026;-70
2021/11/29 10:09:38;;;;;;;0.68;0.68;;;8.70;99.90;;;;;;4987578;28;20034;-70
2021/11/29 10:12:10;;;;;;;0.52;0.40;;;8.70;99.90;;;;;;4979217;28;20027;-69
2021/11/29 10:14:37;;;;;;;5.03;0.63;;;8.80;99.90;;;;;;4992882;28;20045;-69
2021/11/29 10:17:04;;;;;;;0.52;0.52;;;8.70;99.90;;;;;;4988800;28;20110;-68
2021/11/29 10:19:31;;;;;;;0.68;0.68;;;8.80;99.90;;;;;;4991614;28;20423;-69
2021/11/29 10:22:18;;;;;;;0.73;0.50;;;8.70;99.90;;;;;;4991935;28;20109;-69
2021/11/29 10:24:45;;;;;;;0.80;0.80;;;8.70;99.90;;;;;;4992691;28;20042;-69
2021/11/29 10:27:31;;;;;;;4.72;0.77;;;8.60;99.90;;;;;;4993562;28;20022;-69
2021/11/29 10:29:57;;;;;;;0.30;0.30;;;8.50;99.90;;;;;;4993796;28;20046;-67
2021/11/29 10:32:34;;;;;;;0.70;0.40;;;8.50;99.90;;;;;;4992622;28;20115;-68
2021/11/29 10:35:00;;;;;;;0.73;0.63;;;8.50;99.90;;;;;;4993575;28;20022;-67
2021/11/29 10:37:29;;;;;;;0.80;0.57;;;8.50;99.90;;;;;;4993708;28;20023;-67
2021/11/29 10:39:55;;;;;;;0.38;0.38;;;8.50;99.90;;;;;;4992502;28;20032;-68
2021/11/29 10:42:25;;;;;;;0.85;0.80;;;8.50;99.90;;;;;;4993132;28;20028;-69
2021/11/29 10:44:53;;;;;;;2.30;1.25;;;8.50;99.90;;;;;;4987244;28;20026;-69
2021/11/29 10:47:21;;;;;;;4.68;2.55;;;8.50;99.90;;;;;;4998135;28;20022;-68
2021/11/29 10:49:50;;;;;;;5.95;1.65;;;8.50;99.90;;;;;;4994252;28;20428;-68
2021/11/29 10:52:18;;;;;;;1.77;1.08;;;8.50;99.90;;;;;;4991058;28;20125;-69
2021/11/29 10:54:44;;;;;;;3.35;1.60;;;8.50;99.90;;;;;;4986611;28;20062;-68
2021/11/29 10:57:15;;;;;;;1.52;1.10;;;8.60;99.90;;;;;;4985948;28;20030;-68
2021/11/29 10:59:43;;;;;;;32.65;12.50;;;8.60;99.90;;;;;;4982141;28;20054;-69
2021/11/29 11:02:14;;;;;;;0.50;0.50;;;8.70;99.90;;;;;;4993500;28;20066;-69
2021/11/29 11:04:46;;;;;;;1.60;1.15;;;8.60;99.90;;;;;;4993301;28;20094;-66
2021/11/29 11:07:14;;;;;;;2.08;0.82;;;8.60;99.90;;;;;;4992469;28;20040;-67
2021/11/29 11:09:49;;;;;;;1.63;0.57;;;8.70;99.90;;;;;;4989799;28;20025;-70
2021/11/29 11:12:14;;;;;;;1.15;0.70;;;8.70;99.90;;;;;;4991457;28;20170;-67
2021/11/29 11:14:42;;;;;;;1.27;0.47;;;8.70;99.90;;;;;;4992326;28;20098;-67
2021/11/29 11:17:10;;;;;;;0.93;0.85;;;8.60;99.90;;;;;;4992634;28;20018;-66
2021/11/29 11:19:49;;;;;;;0.95;0.70;;;8.60;99.90;;;;;;4989932;28;20488;-67
2021/11/29 11:22:24;;;;;;;1.30;1.00;;;8.50;99.90;;;;;;4991547;28;20037;-69
2021/11/29 11:25:07;;;;;;;1.17;0.90;;;8.60;99.90;;;;;;4991917;28;20505;-68
2021/11/29 11:27:35;;;;;;;1.33;0.90;;;8.60;99.90;;;;;;4990153;28;20585;-67
2021/11/29 11:30:06;;;;;;;1.13;0.95;;;8.70;99.90;;;;;;4992919;28;20105;-68
2021/11/29 11:32:35;;;;;;;1.05;0.88;;;8.70;99.90;;;;;;4992945;28;20223;-68
2021/11/29 11:35:06;;;;;;;0.80;0.80;;;8.70;99.90;;;;;;4978041;28;20029;-68
2021/11/29 11:37:37;;;;;;;1.63;1.10;;;8.60;99.90;;;;;;4977012;28;20025;-70
2021/11/29 11:40:10;;;;;;;1.17;0.95;;;8.50;99.90;;;;;;4992131;28;20022;-68
2021/11/29 11:42:37;;;;;;;2.20;0.80;;;8.60;99.90;;;;;;4990727;28;20030;-69
2021/11/29 11:45:14;;;;;;;2.58;1.30;;;8.60;99.90;;;;;;4990420;28;20482;-67
2021/11/29 11:47:42;;;;;;;1.25;0.95;;;8.70;99.90;;;;;;4982817;28;20035;-68
2021/11/29 11:50:11;;;;;;;5.03;3.83;;;8.80;99.90;;;;;;4972321;28;20081;-69
2021/11/29 11:52:37;;;;;;;14.52;4.55;;;8.90;99.90;;;;;;4974806;28;20041;-67
2021/11/29 11:55:05;;;;;;;14.85;7.68;;;9.00;99.90;;;;;;4992026;28;20400;-68
2021/11/29 11:57:32;;;;;;;2.50;0.88;;;9.10;99.90;;;;;;4991374;28;20037;-68
2021/11/29 12:00:26;;;;;;;12.82;4.28;;;9.10;99.90;;;;;;4986902;28;20097;-69
2021/11/29 12:03:06;;;;;;;26.00;8.68;;;9.20;99.90;;;;;;4975586;28;20076;-69
2021/11/29 12:05:38;;;;;;;6.70;2.35;;;9.30;99.90;;;;;;4989844;28;20081;-70
2021/11/29 12:08:25;;;;;;;4.95;2.67;;;9.20;99.90;;;;;;4990586;28;20034;-69
2021/11/29 12:10:51;;;;;;;2.40;0.85;;;9.20;99.90;;;;;;4990325;28;20084;-69
2021/11/29 12:13:17;;;;;;;1.15;0.80;;;9.20;99.90;;;;;;4991092;28;20034;-74
2021/11/29 12:15:48;;;;;;;2.65;1.00;;;9.10;99.90;;;;;;4974855;28;20500;-69
2021/11/29 12:18:33;;;;;;;1.08;0.73;;;9.10;99.90;;;;;;4972360;28;20389;-67
2021/11/29 12:21:10;;;;;;;0.50;0.50;;;9.00;99.90;;;;;;4971308;28;20023;-67
2021/11/29 12:23:51;;;;;;;4.03;0.75;;;8.80;99.90;;;;;;4986120;28;20030;-67
2021/11/29 12:26:17;;;;;;;0.88;0.70;;;8.70;99.90;;;;;;4990749;28;20026;-68
2021/11/29 12:28:44;;;;;;;1.15;1.00;;;8.70;99.90;;;;;;4992977;28;20036;-66
2021/11/29 12:31:34;;;;;;;0.93;0.73;;;8.60;99.90;;;;;;4992683;28;20026;-68
2021/11/29 12:34:04;;;;;;;1.52;0.90;;;8.60;99.90;;;;;;4990324;28;20084;-67
2021/11/29 12:36:55;;;;;;;0.88;0.88;;;8.60;99.90;;;;;;4990037;28;20058;-68
2021/11/29 12:39:48;;;;;;;2.35;1.20;;;8.50;99.90;;;;;;4989993;28;20150;-67
2021/11/29 12:44:46;;;;;;;1.35;0.80;;;8.40;99.90;;;;;;4981603;28;20509;-68
2021/11/29 12:47:25;;;;;;;3.03;1.00;;;8.30;99.90;;;;;;4971637;28;20039;-67
2021/11/29 12:49:53;;;;;;;1.48;0.82;;;8.40;99.90;;;;;;4980086;28;20030;-69
2021/11/29 12:52:39;;;;;;;1.50;1.17;;;8.30;99.90;;;;;;4988998;28;20047;-67
2021/11/29 12:55:28;;;;;;;4.20;1.55;;;8.40;99.90;;;;;;4987635;28;20035;-67
2021/11/29 12:58:06;;;;;;;1.02;0.93;;;8.30;99.90;;;;;;4990217;28;20023;-68
2021/11/29 13:00:35;;;;;;;0.82;0.82;;;8.30;99.90;;;;;;4981269;28;20401;-67
2021/11/29 13:03:03;;;;;;;2.30;1.50;;;8.30;99.90;;;;;;4986977;28;20034;-67